Time;durP1;ratioP1;P1;durP2;ratioP2;P2;SDS_P1;SDS_P2;PMS_P1;PMS_P2;Temp;Humidity;BMP_temperature;BMP_pressure;BME280_temperature;BME280_humidity;BME280_pressure;Samples;Min_cycle;Max_cycle;Signal;HPM_P1;HPM_P2
2021/10/23 00:02:10;;;;;;;8.73;3.88;;;;;;;10.07;52.98;96125.19;4990275;28;20097;-64
2021/10/23 00:04:35;;;;;;;7.47;3.97;;;;;;;10.03;53.64;96115.38;4989899;28;20725;-64
2021/10/23 00:07:01;;;;;;;7.60;3.75;;;;;;;9.96;53.07;96114.91;5006302;28;20042;-64
2021/10/23 00:09:26;;;;;;;6.60;3.95;;;;;;;10.00;53.26;96119.38;5006045;28;20038;-64
2021/10/23 00:11:52;;;;;;;6.78;4.00;;;;;;;10.01;53.55;96128.16;5003073;28;20029;-64
2021/10/23 00:14:17;;;;;;;6.68;3.88;;;;;;;10.01;53.32;96125.50;4993577;28;20084;-63
2021/10/23 00:16:43;;;;;;;8.13;3.60;;;;;;;9.93;53.45;96120.75;5009334;28;20045;-63
2021/10/23 00:19:08;;;;;;;6.97;3.33;;;;;;;9.92;52.88;96109.31;5007665;28;20084;-64
2021/10/23 00:21:33;;;;;;;7.45;3.47;;;;;;;9.99;52.89;96130.31;5008810;28;20099;-64
2021/10/23 00:23:59;;;;;;;6.78;3.80;;;;;;;10.08;53.02;96125.97;5008730;28;20029;-64
2021/10/23 00:26:24;;;;;;;8.98;3.42;;;;;;;10.04;52.54;96130.28;5002905;28;20476;-64
2021/10/23 00:28:49;;;;;;;9.15;3.25;;;;;;;10.01;52.79;96120.19;5008619;28;20034;-64
2021/10/23 00:31:15;;;;;;;9.25;3.85;;;;;;;10.05;52.86;96130.00;5009050;28;20042;-64
2021/10/23 00:33:40;;;;;;;7.72;3.65;;;;;;;9.96;52.69;96125.53;5008939;28;20077;-64
2021/10/23 00:36:06;;;;;;;8.02;3.88;;;;;;;9.96;53.08;96138.81;4990984;28;20037;-64
2021/10/23 00:38:31;;;;;;;9.35;3.83;;;;;;;9.95;52.78;96131.91;5010513;28;20024;-65
2021/10/23 00:40:57;;;;;;;10.35;4.18;;;;;;;9.84;52.76;96116.03;5001587;28;20447;-65
2021/10/23 00:43:22;;;;;;;6.30;3.33;;;;;;;9.87;52.78;96118.13;5007592;28;20073;-64
2021/10/23 00:45:48;;;;;;;4.68;3.22;;;;;;;9.97;52.37;96129.75;5008843;28;20046;-65
2021/10/23 00:48:14;;;;;;;7.70;3.42;;;;;;;9.94;53.07;96131.13;5009047;28;20148;-64
2021/10/23 00:50:40;;;;;;;6.20;3.17;;;;;;;9.88;52.17;96117.06;5010060;28;20083;-63
2021/10/23 00:53:07;;;;;;;7.95;3.58;;;;;;;9.96;52.52;96130.84;5000282;28;20393;-64
2021/10/23 00:55:32;;;;;;;7.55;3.40;;;;;;;9.89;53.11;96120.53;5005119;28;20035;-63
2021/10/23 00:57:58;;;;;;;6.72;3.70;;;;;;;9.96;52.79;96133.50;5004511;28;20506;-63
2021/10/23 01:00:23;;;;;;;8.20;3.42;;;;;;;9.91;52.62;96134.31;5008116;28;20041;-64
2021/10/23 01:02:49;;;;;;;8.10;3.90;;;;;;;9.93;52.56;96131.38;5008295;28;20342;-64
2021/10/23 01:05:14;;;;;;;9.88;3.55;;;;;;;9.97;52.60;96143.06;5010071;28;20036;-65
2021/10/23 01:07:40;;;;;;;5.65;3.30;;;;;;;9.95;53.00;96138.03;5008101;28;20617;-64
2021/10/23 01:10:08;;;;;;;6.55;3.50;;;;;;;9.96;52.89;96141.47;5007758;28;20117;-63
2021/10/23 01:12:35;;;;;;;7.13;3.80;;;;;;;9.76;52.29;96107.84;5000684;28;20034;-63
2021/10/23 01:15:14;;;;;;;6.85;3.17;;;;;;;9.89;52.67;96131.16;5008176;28;20045;-64
2021/10/23 01:17:40;;;;;;;8.98;3.67;;;;;;;9.96;52.04;96133.50;5010364;28;20029;-65
2021/10/23 01:20:06;;;;;;;10.70;3.90;;;;;;;9.95;51.96;96134.56;5008027;28;20502;-63
2021/10/23 01:22:31;;;;;;;9.23;3.63;;;;;;;9.88;52.65;96133.03;5007485;28;20042;-64
2021/10/23 01:24:57;;;;;;;13.10;4.00;;;;;;;9.94;52.46;96138.31;5008014;28;20041;-65
2021/10/23 01:27:22;;;;;;;11.05;3.50;;;;;;;9.99;52.29;96143.59;4989907;28;20042;-64
2021/10/23 01:29:48;;;;;;;6.68;3.50;;;;;;;9.97;52.10;96138.53;4988791;28;20022;-64
2021/10/23 01:32:13;;;;;;;7.20;3.05;;;;;;;9.81;52.21;96113.13;4990561;28;20027;-65
2021/10/23 01:34:39;;;;;;;7.47;3.20;;;;;;;9.81;52.20;96121.88;4986925;28;20034;-64
2021/10/23 01:37:04;;;;;;;7.13;2.92;;;;;;;9.87;52.42;96139.38;5001966;28;20522;-66
2021/10/23 01:39:33;;;;;;;7.50;3.33;;;;;;;9.87;52.07;96144.69;5007339;28;20049;-65
2021/10/23 01:41:59;;;;;;;6.85;3.28;;;;;;;9.79;52.02;96132.00;4999809;28;20387;-64
2021/10/23 01:44:30;;;;;;;5.95;3.47;;;;;;;9.85;52.20;96146.06;5009679;28;20036;-64
2021/10/23 01:46:55;;;;;;;6.15;3.42;;;;;;;9.81;52.20;96142.34;5008269;28;20050;-64
2021/10/23 01:49:21;;;;;;;8.75;3.85;;;;;;;9.82;52.24;96147.38;5007700;28;20845;-66
2021/10/23 01:51:47;;;;;;;12.20;3.88;;;;;;;9.85;52.20;96149.50;5007506;28;20508;-63
2021/10/23 01:54:12;;;;;;;7.00;3.63;;;;;;;9.78;52.68;96130.41;5007230;28;20092;-64
2021/10/23 01:56:40;;;;;;;6.35;3.38;;;;;;;9.85;52.51;96144.19;5001398;28;20076;-63
2021/10/23 01:59:06;;;;;;;5.32;3.40;;;;;;;9.78;52.27;96132.28;5007328;28;20072;-64
2021/10/23 02:01:32;;;;;;;8.20;3.70;;;;;;;9.83;52.36;96142.88;5007762;28;20066;-64
2021/10/23 02:03:58;;;;;;;7.63;3.47;;;;;;;9.72;52.67;96134.16;5007375;28;20038;-64
2021/10/23 02:06:24;;;;;;;6.10;3.78;;;;;;;9.78;52.24;96146.38;5007402;28;20092;-65
2021/10/23 02:08:49;;;;;;;6.10;3.55;;;;;;;9.78;52.59;96145.56;5007116;28;20061;-64
2021/10/23 02:11:16;;;;;;;9.00;3.83;;;;;;;9.79;52.27;96147.16;5001236;28;20053;-65
2021/10/23 02:13:42;;;;;;;6.80;3.33;;;;;;;9.74;52.41;96144.53;5007477;28;20034;-64
2021/10/23 02:16:08;;;;;;;11.90;3.40;;;;;;;9.75;52.37;96152.22;5007803;28;20088;-65
2021/10/23 02:18:34;;;;;;;6.93;3.42;;;;;;;9.81;51.99;96150.31;5007361;28;20060;-64
2021/10/23 02:20:59;;;;;;;5.30;3.53;;;;;;;9.77;52.39;96147.41;5009997;28;20018;-64
2021/10/23 02:23:25;;;;;;;8.57;3.90;;;;;;;9.85;52.00;96146.06;5004865;28;20053;-64
2021/10/23 02:25:51;;;;;;;10.73;3.33;;;;;;;9.87;52.07;96149.22;5005174;28;20054;-66
2021/10/23 02:28:17;;;;;;;9.68;3.55;;;;;;;9.88;52.19;96141.00;5009736;28;20046;-64
2021/10/23 02:30:44;;;;;;;9.32;3.50;;;;;;;9.97;52.38;96149.16;5011304;28;20053;-64
2021/10/23 02:33:09;;;;;;;9.43;3.53;;;;;;;10.11;52.54;96146.69;5011180;28;20034;-65
2021/10/23 02:35:35;;;;;;;6.43;3.72;;;;;;;10.37;51.88;96153.44;5013382;28;20033;-65
2021/10/23 02:38:00;;;;;;;6.65;3.25;;;;;;;10.64;51.30;96152.19;5010763;28;20448;-65
2021/10/23 02:40:27;;;;;;;3.30;2.60;;;;;;;10.89;51.02;96148.50;5007816;28;20030;-65
2021/10/23 02:42:52;;;;;;;4.20;2.58;;;;;;;11.12;49.75;96154.94;5005785;28;20038;-65
2021/10/23 02:45:18;;;;;;;6.10;2.58;;;;;;;11.19;49.55;96137.53;5011455;28;20045;-65
2021/10/23 02:47:43;;;;;;;6.20;3.20;;;;;;;11.21;49.95;96161.25;5011963;28;20479;-64
2021/10/23 02:50:09;;;;;;;7.00;2.40;;;;;;;11.40;49.51;96142.66;5010838;28;20030;-65
2021/10/23 02:52:34;;;;;;;6.32;2.83;;;;;;;11.48;48.63;96149.22;5010429;28;20781;-64
2021/10/23 02:55:00;;;;;;;5.32;2.17;;;;;;;11.75;48.12;96149.41;5009902;28;20095;-63
2021/10/23 02:57:26;;;;;;;4.28;2.30;;;;;;;11.85;48.18;96135.97;5002619;28;20125;-63
2021/10/23 02:59:51;;;;;;;4.65;2.35;;;;;;;12.01;47.95;96157.09;5010886;28;20029;-64
2021/10/23 03:02:17;;;;;;;6.75;2.47;;;;;;;12.11;47.30;96164.97;5013497;28;20479;-65
2021/10/23 03:04:42;;;;;;;7.57;2.55;;;;;;;12.18;47.20;96168.88;5011033;28;20484;-64
2021/10/23 03:07:07;;;;;;;7.03;2.80;;;;;;;12.29;46.89;96171.41;5010744;28;20034;-63
2021/10/23 03:09:33;;;;;;;7.35;2.50;;;;;;;12.19;46.56;96153.66;5010123;28;20200;-63
2021/10/23 03:11:59;;;;;;;4.40;2.20;;;;;;;12.41;46.95;96161.84;5002613;28;20073;-65
2021/10/23 03:14:24;;;;;;;8.70;2.25;;;;;;;12.52;46.30;96172.38;5012562;28;20431;-65
2021/10/23 03:16:50;;;;;;;4.57;2.20;;;;;;;12.54;46.13;96178.22;5010848;28;20384;-65
2021/10/23 03:19:16;;;;;;;5.40;2.20;;;;;;;12.51;46.31;96181.47;5010245;28;20118;-65
2021/10/23 03:21:42;;;;;;;6.20;2.13;;;;;;;12.58;45.80;96187.22;5009898;28;20448;-65
2021/10/23 03:24:07;;;;;;;5.53;2.50;;;;;;;12.66;45.97;96189.25;5009662;28;20121;-64
2021/10/23 03:26:32;;;;;;;4.07;1.83;;;;;;;12.58;45.84;96188.00;5000487;28;20032;-65
2021/10/23 03:28:58;;;;;;;6.03;2.33;;;;;;;12.68;46.26;96198.53;4990329;28;20080;-64
2021/10/23 03:31:23;;;;;;;5.47;2.03;;;;;;;12.78;45.98;96194.91;4990946;28;20122;-64
2021/10/23 03:33:49;;;;;;;7.18;2.20;;;;;;;12.79;45.96;96188.47;4990412;28;20540;-65
2021/10/23 03:36:14;;;;;;;7.97;2.47;;;;;;;12.88;45.70;96197.41;4992875;28;20176;-65
2021/10/23 03:38:39;;;;;;;4.47;1.92;;;;;;;12.80;45.67;96184.75;5003168;28;20514;-64
2021/10/23 03:41:05;;;;;;;5.93;2.33;;;;;;;12.78;45.75;96181.56;5001939;28;20400;-64
2021/10/23 03:43:30;;;;;;;4.78;2.05;;;;;;;12.92;45.64;96197.63;5009874;28;20066;-63
2021/10/23 03:45:56;;;;;;;8.73;2.40;;;;;;;12.97;45.53;96189.53;5009966;28;20057;-64
2021/10/23 03:48:21;;;;;;;6.68;1.90;;;;;;;12.99;45.52;96198.81;5009990;28;20042;-66
2021/10/23 03:50:47;;;;;;;8.15;2.80;;;;;;;13.04;45.30;96205.19;5011557;28;20633;-64
2021/10/23 03:53:12;;;;;;;3.85;2.20;;;;;;;13.07;45.38;96204.59;5007908;28;20111;-63
2021/10/23 03:55:38;;;;;;;3.75;2.00;;;;;;;12.99;45.04;96200.72;4998345;28;20042;-64
2021/10/23 03:58:04;;;;;;;3.22;1.90;;;;;;;13.08;44.95;96198.16;4988816;28;20731;-65
2021/10/23 04:00:30;;;;;;;3.75;2.05;;;;;;;13.06;45.00;96216.38;4989692;28;20134;-65
2021/10/23 04:02:55;;;;;;;4.43;1.77;;;;;;;12.98;45.02;96188.44;4990032;28;20139;-65
2021/10/23 04:05:21;;;;;;;4.72;1.90;;;;;;;13.15;44.78;96204.69;4991958;28;20377;-64
2021/10/23 04:07:46;;;;;;;5.40;2.05;;;;;;;13.21;44.69;96210.78;5003239;28;20045;-64
2021/10/23 04:10:12;;;;;;;5.18;2.00;;;;;;;13.22;44.92;96217.72;5007677;28;20050;-64
2021/10/23 04:12:37;;;;;;;6.72;2.40;;;;;;;13.22;44.76;96215.06;5002361;28;20089;-66
2021/10/23 04:15:03;;;;;;;7.63;2.33;;;;;;;13.13;44.84;96200.75;5009367;28;20022;-65
2021/10/23 04:17:29;;;;;;;4.82;2.20;;;;;;;13.23;44.58;96221.97;5011354;28;20044;-64
2021/10/23 04:19:55;;;;;;;2.15;1.70;;;;;;;13.16;44.54;96222.34;5008960;28;20073;-64
2021/10/23 04:22:21;;;;;;;3.92;1.92;;;;;;;13.16;44.60;96224.22;5008721;28;20483;-63
2021/10/23 04:24:47;;;;;;;4.57;1.50;;;;;;;13.16;44.56;96229.56;5008556;28;20476;-63
2021/10/23 04:27:12;;;;;;;6.13;1.80;;;;;;;13.23;44.82;96230.00;5001070;28;20117;-64
2021/10/23 04:29:38;;;;;;;6.13;2.03;;;;;;;13.20;44.41;96230.53;5010632;28;20026;-63
2021/10/23 04:32:03;;;;;;;5.93;2.13;;;;;;;13.12;44.80;96207.97;5009235;28;20416;-64
2021/10/23 04:34:29;;;;;;;5.60;1.52;;;;;;;13.15;44.80;96206.59;5008859;28;20129;-64
2021/10/23 04:36:54;;;;;;;10.02;2.15;;;;;;;13.28;44.59;96221.88;5007557;28;20050;-64
2021/10/23 04:39:20;;;;;;;4.43;1.90;;;;;;;13.31;44.74;96220.50;5008130;28;20038;-64
2021/10/23 04:41:45;;;;;;;3.85;1.80;;;;;;;13.36;44.62;96229.25;5005134;28;20479;-65
2021/10/23 04:44:11;;;;;;;5.70;2.00;;;;;;;13.35;44.62;96232.19;5005699;28;20634;-65
2021/10/23 04:46:36;;;;;;;3.55;1.80;;;;;;;13.40;44.61;96235.56;5008866;28;20116;-64
2021/10/23 04:49:02;;;;;;;6.57;2.30;;;;;;;13.36;44.24;96226.56;5008312;28;20447;-64
2021/10/23 04:51:27;;;;;;;4.10;1.95;;;;;;;13.41;44.83;96226.47;5008571;28;20041;-64
2021/10/23 04:53:52;;;;;;;6.95;1.80;;;;;;;13.40;44.70;96224.88;5007950;28;20484;-64
2021/10/23 04:56:18;;;;;;;6.25;2.30;;;;;;;13.34;44.60;96214.56;5008534;28;20054;-66
2021/10/23 04:58:43;;;;;;;6.07;1.95;;;;;;;13.43;44.39;96228.84;5001777;28;20511;-64
2021/10/23 05:01:09;;;;;;;4.32;2.25;;;;;;;13.45;44.48;96240.03;5008764;28;20042;-66
2021/10/23 05:03:34;;;;;;;4.70;2.00;;;;;;;13.44;44.47;96239.22;5008359;28;20487;-65
2021/10/23 05:05:59;;;;;;;6.68;1.75;;;;;;;13.39;44.52;96228.63;5008435;28;20036;-64
2021/10/23 05:08:25;;;;;;;8.65;2.00;;;;;;;13.45;44.57;96243.47;5009357;28;20030;-65
2021/10/23 05:10:51;;;;;;;2.65;1.70;;;;;;;13.42;44.61;96238.75;5007020;28;20038;-68
2021/10/23 05:13:17;;;;;;;4.65;2.08;;;;;;;13.44;44.52;96247.25;4999964;28;20451;-68
2021/10/23 05:15:43;;;;;;;3.58;2.00;;;;;;;13.42;44.88;96236.06;5008954;28;20038;-61
2021/10/23 05:18:10;;;;;;;4.45;1.95;;;;;;;13.51;44.54;96250.34;5008331;28;20104;-67
2021/10/23 05:20:35;;;;;;;5.47;2.05;;;;;;;13.45;44.64;96234.69;5009725;28;20399;-64
2021/10/23 05:23:00;;;;;;;5.75;1.88;;;;;;;13.37;44.62;96233.50;5007511;28;20030;-64
2021/10/23 05:25:26;;;;;;;2.60;1.40;;;;;;;13.44;44.51;96243.78;4999967;28;20077;-63
2021/10/23 05:27:52;;;;;;;8.32;1.80;;;;;;;13.33;44.83;96234.38;4993626;28;20039;-65
2021/10/23 05:30:18;;;;;;;4.43;1.98;;;;;;;13.38;44.72;96253.78;4988155;28;20147;-63
2021/10/23 05:32:43;;;;;;;5.93;1.70;;;;;;;13.37;44.98;96252.19;4990184;28;20672;-63
2021/10/23 05:35:09;;;;;;;5.00;2.17;;;;;;;13.26;44.97;96235.56;4988480;28;20050;-62
2021/10/23 05:37:35;;;;;;;4.85;1.95;;;;;;;13.39;44.94;96255.34;4996810;28;20570;-64
2021/10/23 05:40:00;;;;;;;3.78;1.60;;;;;;;13.34;45.01;96242.09;5006118;28;20128;-63
2021/10/23 05:42:26;;;;;;;7.57;2.47;;;;;;;13.35;44.61;96241.00;4998417;28;20073;-63
2021/10/23 05:44:51;;;;;;;4.53;1.65;;;;;;;13.42;44.66;96245.97;5007459;28;20033;-63
2021/10/23 05:47:16;;;;;;;3.95;2.08;;;;;;;13.45;44.83;96253.38;5009793;28;20033;-63
2021/10/23 05:49:42;;;;;;;3.83;2.08;;;;;;;13.35;44.64;96249.00;5007202;28;20061;-64
2021/10/23 05:52:07;;;;;;;6.22;1.90;;;;;;;13.37;44.87;96262.88;5007081;28;20081;-63
2021/10/23 05:54:37;;;;;;;3.20;1.77;;;;;;;13.40;44.69;96259.59;5006319;28;20547;-62
2021/10/23 05:57:07;;;;;;;7.53;2.03;;;;;;;13.35;44.65;96257.03;4999765;28;20022;-64
2021/10/23 05:59:33;;;;;;;6.13;1.90;;;;;;;13.25;44.87;96241.97;4989524;28;20109;-63
2021/10/23 06:02:10;;;;;;;5.00;1.98;;;;;;;13.30;44.47;96249.09;4988213;28;20100;-63
2021/10/23 06:04:36;;;;;;;3.28;1.80;;;;;;;13.37;44.67;96267.44;5002937;28;20717;-63
2021/10/23 06:07:04;;;;;;;6.28;1.95;;;;;;;13.41;44.43;96274.56;4991189;28;20038;-63
2021/10/23 06:09:30;;;;;;;4.90;2.15;;;;;;;13.43;44.64;96272.41;5006615;28;20701;-64
2021/10/23 06:12:00;;;;;;;5.80;1.85;;;;;;;13.52;44.50;96277.88;5000616;28;20035;-63
2021/10/23 06:14:25;;;;;;;5.53;2.30;;;;;;;13.56;44.26;96268.16;5008580;28;20121;-63
2021/10/23 06:16:51;;;;;;;3.45;1.90;;;;;;;13.69;44.14;96277.28;5007692;28;20102;-63
2021/10/23 06:19:16;;;;;;;4.40;1.98;;;;;;;13.69;44.09;96264.72;5007006;28;20045;-63
2021/10/23 06:21:41;;;;;;;5.95;2.05;;;;;;;13.79;43.70;96274.44;5006940;28;20038;-63
2021/10/23 06:24:07;;;;;;;7.05;2.33;;;;;;;13.81;43.98;96277.59;4998692;28;20027;-64
2021/10/23 06:26:32;;;;;;;5.38;2.40;;;;;;;13.86;43.55;96274.81;5005604;28;20069;-64
2021/10/23 06:28:57;;;;;;;4.32;1.80;;;;;;;13.88;43.47;96275.31;5002527;28;20038;-63
2021/10/23 06:31:23;;;;;;;4.15;1.88;;;;;;;13.98;43.67;96285.03;5007349;28;20095;-63
2021/10/23 06:33:48;;;;;;;4.05;1.63;;;;;;;13.98;43.07;96287.72;4989272;28;20574;-64
2021/10/23 06:36:14;;;;;;;5.85;1.95;;;;;;;14.02;43.17;96278.81;5007149;28;20042;-64
2021/10/23 06:38:39;;;;;;;4.35;1.90;;;;;;;14.10;43.20;96284.53;5008226;28;20083;-63
2021/10/23 06:41:05;;;;;;;4.55;1.80;;;;;;;14.21;42.80;96300.09;5005864;28;20038;-63
2021/10/23 06:43:30;;;;;;;4.68;1.80;;;;;;;14.28;42.57;96278.28;4998763;28;20073;-64
2021/10/23 06:45:55;;;;;;;7.38;1.95;;;;;;;14.44;42.50;96298.28;5007416;28;20417;-64
2021/10/23 06:48:21;;;;;;;3.10;1.60;;;;;;;14.53;42.69;96295.72;5007202;28;20129;-64
2021/10/23 06:50:46;;;;;;;7.57;4.90;;;;;;;14.69;42.31;96305.03;5008669;28;20029;-64
2021/10/23 06:53:12;;;;;;;4.60;2.08;;;;;;;14.85;42.14;96312.72;5003028;28;20039;-68
2021/10/23 06:55:37;;;;;;;5.95;2.40;;;;;;;14.92;41.95;96321.91;5006722;28;20052;-66
2021/10/23 06:58:02;;;;;;;5.65;1.90;;;;;;;15.06;41.95;96316.50;4998854;28;20066;-66
2021/10/23 07:00:28;;;;;;;4.55;1.90;;;;;;;15.06;41.33;96303.13;5006480;28;20101;-67
2021/10/23 07:02:53;;;;;;;4.95;1.35;;;;;;;15.22;41.43;96331.13;5006747;28;20464;-67
2021/10/23 07:05:20;;;;;;;3.22;1.35;;;;;;;15.21;41.03;96323.41;4991885;28;20036;-67
2021/10/23 07:07:46;;;;;;;4.43;1.90;;;;;;;15.26;40.91;96334.00;5010599;28;20443;-66
2021/10/23 07:10:12;;;;;;;8.38;1.85;;;;;;;15.36;40.75;96341.03;5010452;28;20038;-66
2021/10/23 07:12:38;;;;;;;6.10;2.08;;;;;;;15.40;40.65;96336.59;5002523;28;20068;-63
2021/10/23 07:15:04;;;;;;;4.43;1.60;;;;;;;15.58;40.46;96349.84;5010363;28;20467;-70
2021/10/23 07:17:30;;;;;;;3.08;1.60;;;;;;;15.54;40.18;96331.97;5012523;28;20018;-69
2021/10/23 07:19:56;;;;;;;5.47;1.52;;;;;;;15.70;39.63;96345.81;5009187;28;20041;-73
2021/10/23 07:22:23;;;;;;;3.20;1.60;;;;;;;15.70;39.87;96340.47;5009835;28;20064;-75
2021/10/23 07:24:49;;;;;;;4.75;1.60;;;;;;;15.82;39.61;96344.19;5009741;28;20503;-66
2021/10/23 07:27:15;;;;;;;4.47;1.45;;;;;;;16.01;39.71;96352.00;5002024;28;20073;-70
2021/10/23 07:29:40;;;;;;;4.13;1.45;;;;;;;16.10;39.26;96360.88;5011885;28;20375;-81
2021/10/23 07:32:07;;;;;;;4.93;1.80;;;;;;;16.09;39.38;96348.56;5010602;28;20052;-64
2021/10/23 07:34:32;;;;;;;3.90;1.52;;;;;;;16.18;39.07;96353.97;5008685;28;20095;-63
2021/10/23 07:36:58;;;;;;;3.83;1.73;;;;;;;16.28;38.81;96350.22;5010398;28;20042;-66
2021/10/23 07:39:23;;;;;;;4.10;1.58;;;;;;;16.44;38.17;96372.88;5009226;28;20396;-73
2021/10/23 07:41:49;;;;;;;5.32;1.52;;;;;;;16.29;38.22;96378.66;5010701;28;20030;-70
2021/10/23 07:44:15;;;;;;;4.05;1.42;;;;;;;15.23;39.99;96385.53;4976776;28;20488;-71
2021/10/23 07:46:40;;;;;;;4.35;1.48;;;;;;;14.38;41.23;96368.28;4990644;28;20034;-69
2021/10/23 07:49:06;;;;;;;6.28;1.67;;;;;;;15.82;39.54;96389.00;4990014;28;20031;-67
2021/10/23 07:51:34;;;;;;;4.38;2.08;;;;;;;16.15;38.13;96386.78;4990619;28;20117;-67
2021/10/23 07:54:00;;;;;;;3.83;1.15;;;;;;;15.77;39.11;96406.00;5004963;28;20034;-69
2021/10/23 07:56:25;;;;;;;3.88;2.03;;;;;;;14.14;41.99;96384.53;5012319;28;20025;-75
2021/10/23 07:58:50;;;;;;;3.78;1.55;;;;;;;12.97;44.91;96405.88;5000930;28;20038;-64
2021/10/23 08:01:16;;;;;;;4.13;1.85;;;;;;;13.69;43.93;96405.63;5009305;28;20416;-64
2021/10/23 08:03:42;;;;;;;4.35;2.50;;;;;;;14.22;43.45;96410.59;5009428;28;20121;-67
2021/10/23 08:06:08;;;;;;;5.55;1.65;;;;;;;14.72;42.07;96413.41;5009909;28;20054;-67
2021/10/23 08:08:35;;;;;;;4.47;2.13;;;;;;;13.97;42.85;96412.66;5011061;28;20026;-72
2021/10/23 08:11:01;;;;;;;5.45;1.83;;;;;;;13.35;44.68;96421.91;5009294;28;20045;-65
2021/10/23 08:13:27;;;;;;;2.92;1.48;;;;;;;13.61;44.13;96422.31;5000830;28;20569;-63
2021/10/23 08:15:53;;;;;;;4.10;1.70;;;;;;;14.57;42.74;96404.59;5009177;28;20052;-66
2021/10/23 08:18:19;;;;;;;4.30;1.80;;;;;;;15.27;41.43;96391.88;5008164;28;20056;-72
2021/10/23 08:20:44;;;;;;;3.15;1.80;;;;;;;15.18;40.55;96405.19;5011200;28;20061;-71
2021/10/23 08:23:10;;;;;;;5.22;1.90;;;;;;;15.57;40.78;96401.91;5008718;28;20061;-68
2021/10/23 08:25:35;;;;;;;4.35;1.60;;;;;;;15.25;40.11;96392.19;5008994;28;20113;-69
2021/10/23 08:28:01;;;;;;;5.70;1.73;;;;;;;14.82;41.32;96391.78;5001570;28;20051;-69
2021/10/23 08:30:26;;;;;;;3.08;1.35;;;;;;;15.75;40.08;96377.88;5008244;28;20041;-68
2021/10/23 08:32:52;;;;;;;3.42;2.00;;;;;;;15.66;39.84;96369.00;5008911;28;20084;-67
2021/10/23 08:35:19;;;;;;;5.43;1.90;;;;;;;15.86;39.69;96365.81;5011175;28;20104;-67
2021/10/23 08:37:46;;;;;;;4.28;1.70;;;;;;;16.14;39.76;96381.75;5008785;28;20200;-76
2021/10/23 08:40:14;;;;;;;6.88;2.15;;;;;;;15.18;40.95;96374.94;5007126;28;20408;-66
2021/10/23 08:42:40;;;;;;;5.53;2.17;;;;;;;14.68;41.48;96366.91;5009032;28;20448;-68
2021/10/23 08:45:08;;;;;;;4.85;2.17;;;;;;;14.32;42.87;96365.69;4993217;28;20120;-77
2021/10/23 08:47:41;;;;;;;5.97;2.08;;;;;;;12.14;47.19;96370.56;4991967;28;20041;-66
2021/10/23 08:50:11;;;;;;;4.03;1.73;;;;;;;13.51;45.07;96378.66;4989096;28;20100;-68
2021/10/23 08:52:37;;;;;;;2.90;1.80;;;;;;;13.46;45.03;96377.91;4990740;28;20049;-69
2021/10/23 08:55:04;;;;;;;5.28;1.75;;;;;;;14.24;43.82;96366.41;5008579;28;20125;-67
2021/10/23 08:57:29;;;;;;;7.15;2.15;;;;;;;14.64;42.60;96374.75;5004811;28;20058;-66
2021/10/23 09:00:01;;;;;;;3.78;1.88;;;;;;;14.65;42.64;96370.19;5003389;28;20482;-65
2021/10/23 09:02:27;;;;;;;5.53;1.98;;;;;;;14.93;42.54;96377.06;5010347;28;20415;-64
2021/10/23 09:04:55;;;;;;;8.50;2.15;;;;;;;14.00;44.69;96381.84;5008532;28;20101;-64
2021/10/23 09:07:23;;;;;;;5.78;1.83;;;;;;;14.45;43.39;96388.22;5008539;28;20038;-70
2021/10/23 09:10:08;;;;;;;5.25;2.08;;;;;;;13.07;46.57;96384.34;4994722;28;20555;-66
2021/10/23 09:12:36;;;;;;;5.03;1.80;;;;;;;13.13;46.29;96385.88;4992855;28;20125;-68
2021/10/23 09:15:13;;;;;;;5.40;1.90;;;;;;;13.58;45.84;96390.84;5008965;28;20025;-68
2021/10/23 09:17:42;;;;;;;7.20;2.17;;;;;;;13.34;46.14;96386.38;5010289;28;20026;-69
2021/10/23 09:20:11;;;;;;;6.05;1.98;;;;;;;13.22;46.05;96383.38;5006624;28;20034;-69
2021/10/23 09:22:41;;;;;;;5.25;2.03;;;;;;;12.44;47.91;96390.00;5007712;28;20041;-66
2021/10/23 09:25:09;;;;;;;6.68;1.90;;;;;;;12.96;47.33;96378.38;5007360;28;20049;-66
2021/10/23 09:27:35;;;;;;;5.93;1.75;;;;;;;13.77;45.75;96379.03;5007792;28;20042;-65
2021/10/23 09:30:01;;;;;;;5.68;2.17;;;;;;;14.53;44.44;96371.47;4981697;28;20637;-62
2021/10/23 09:32:34;;;;;;;4.25;1.60;;;;;;;13.38;46.14;96387.41;5009957;28;20030;-63
2021/10/23 09:35:10;;;;;;;4.80;1.90;;;;;;;13.14;46.54;96386.66;5007604;28;20045;-65
2021/10/23 09:37:35;;;;;;;3.70;1.58;;;;;;;13.31;46.16;96362.13;5009901;28;20396;-71
2021/10/23 09:40:08;;;;;;;5.70;1.75;;;;;;;14.02;44.85;96387.66;5007165;28;20042;-66
2021/10/23 09:42:34;;;;;;;7.70;1.50;;;;;;;14.14;44.84;96379.19;5007310;28;20108;-66
2021/10/23 09:45:05;;;;;;;4.60;1.67;;;;;;;13.73;45.07;96371.88;4999327;28;20026;-69
2021/10/23 09:47:43;;;;;;;2.92;1.52;;;;;;;14.54;43.60;96372.28;5009544;28;20029;-64
2021/10/23 09:50:20;;;;;;;5.53;1.55;;;;;;;14.43;44.31;96385.03;5007384;28;20026;-66
2021/10/23 09:52:57;;;;;;;3.67;1.40;;;;;;;13.81;45.34;96389.91;5007652;28;20040;-66
2021/10/23 09:55:24;;;;;;;5.38;1.98;;;;;;;13.47;45.78;96372.28;5005242;28;20501;-67
2021/10/23 09:58:14;;;;;;;5.28;2.00;;;;;;;14.08;43.99;96378.47;5007455;28;20037;-66
2021/10/23 10:00:41;;;;;;;5.97;1.85;;;;;;;13.87;44.74;96383.41;5000600;28;20579;-65
2021/10/23 10:03:07;;;;;;;4.38;1.77;;;;;;;13.83;45.09;96382.41;5007440;28;20044;-62
2021/10/23 10:05:34;;;;;;;5.18;2.10;;;;;;;14.36;43.79;96384.63;5009204;28;20032;-64
2021/10/23 10:08:05;;;;;;;3.85;2.03;;;;;;;13.88;44.87;96384.19;5007691;28;20030;-63
2021/10/23 10:10:33;;;;;;;3.78;1.85;;;;;;;14.15;44.00;96362.03;5000632;28;20030;-64
2021/10/23 10:12:59;;;;;;;6.80;2.13;;;;;;;13.40;46.08;96385.22;5001315;28;20106;-70
2021/10/23 10:15:25;;;;;;;5.35;1.98;;;;;;;13.83;45.21;96373.59;4998052;28;20030;-63
2021/10/23 10:17:52;;;;;;;6.93;1.80;;;;;;;14.12;43.78;96394.72;5007612;28;20018;-68
2021/10/23 10:20:19;;;;;;;4.05;2.13;;;;;;;14.57;43.42;96380.50;4991420;28;20026;-68
2021/10/23 10:22:54;;;;;;;5.57;2.03;;;;;;;13.93;44.55;96398.28;5007417;28;20041;-68
2021/10/23 10:25:24;;;;;;;3.03;1.38;;;;;;;14.67;42.36;96387.53;4988870;28;20034;-67
2021/10/23 10:27:52;;;;;;;12.80;2.10;;;;;;;14.39;43.35;96378.69;5007067;28;20069;-67
2021/10/23 10:30:34;;;;;;;6.88;1.80;;;;;;;14.08;43.00;96383.03;4998500;28;20120;-66
2021/10/23 10:33:30;;;;;;;5.20;2.13;;;;;;;13.84;43.89;96389.31;5007015;28;20165;-66
2021/10/23 10:36:50;;;;;;;4.60;1.65;;;;;;;14.83;42.20;96375.41;5007081;28;20040;-70
2021/10/23 10:39:53;;;;;;;3.33;1.38;;;;;;;13.81;43.43;96384.56;5003378;28;20408;-70
2021/10/23 10:45:28;;;;;;;4.32;1.60;;;;;;;15.88;40.09;96368.97;5011252;28;20052;-68
2021/10/23 10:48:15;;;;;;;1.90;1.38;;;;;;;16.22;39.34;96375.59;5011069;28;20022;-68
2021/10/23 10:50:52;;;;;;;5.07;1.40;;;;;;;15.78;40.27;96369.25;5012645;28;20014;-68
2021/10/23 10:53:19;;;;;;;3.17;1.38;;;;;;;14.63;40.67;96372.34;5011005;28;20042;-70
2021/10/23 10:55:50;;;;;;;2.58;1.30;;;;;;;15.49;40.16;96375.78;5009221;28;20423;-71
2021/10/23 10:58:17;;;;;;;3.05;1.13;;;;;;;14.01;41.09;96372.72;5010508;28;20038;-71
2021/10/23 11:00:45;;;;;;;3.90;1.17;;;;;;;14.61;39.58;96374.56;5018387;23;20041;-76
2021/10/23 11:03:37;;;;;;;2.80;1.00;;;;;;;14.32;41.20;96380.97;5010831;28;20484;-73
2021/10/23 11:09:11;;;;;;;4.18;1.50;;;;;;;16.20;37.70;96367.88;4992757;28;20049;-76
2021/10/23 11:11:49;;;;;;;3.28;1.50;;;;;;;15.91;39.02;96364.88;5003081;28;20031;-76
2021/10/23 11:14:24;;;;;;;2.60;1.25;;;;;;;15.73;40.03;96372.84;4993571;28;20066;-77
2021/10/23 11:16:55;;;;;;;2.08;1.35;;;;;;;15.91;38.41;96381.78;4975582;28;20038;-77
2021/10/23 11:19:39;;;;;;;3.50;1.60;;;;;;;16.21;38.46;96369.44;4993091;28;20034;-78
2021/10/23 11:22:16;;;;;;;3.92;1.50;;;;;;;17.33;36.26;96363.53;4992792;28;20041;-79
2021/10/23 11:24:44;;;;;;;3.03;1.63;;;;;;;15.71;38.40;96364.28;4992062;28;20523;-78
2021/10/23 11:27:28;;;;;;;3.95;1.67;;;;;;;15.28;38.71;96372.00;4992074;28;20129;-77
2021/10/23 11:30:03;;;;;;;3.42;1.45;;;;;;;15.07;38.84;96356.41;4992380;28;20349;-78
2021/10/23 11:32:29;;;;;;;4.63;1.42;;;;;;;15.70;37.93;96362.72;4977420;28;20034;-77
2021/10/23 11:34:55;;;;;;;3.20;1.17;;;;;;;15.87;37.48;96351.31;4991819;28;20046;-78
2021/10/23 11:37:24;;;;;;;2.85;1.33;;;;;;;16.04;37.60;96356.75;4991335;28;20038;-74
2021/10/23 11:40:07;;;;;;;2.95;1.60;;;;;;;15.45;38.73;96355.25;4990499;28;20092;-75
2021/10/23 11:42:52;;;;;;;3.00;1.58;;;;;;;15.41;38.92;96371.19;4990729;28;20034;-73